createdAt,value
2023-04-08T00:01:22.442Z,102.45
2023-04-08T00:03:49.233Z,91.40
2023-04-08T00:06:16.225Z,94.00
2023-04-08T00:08:42.864Z,93.13
2023-04-08T00:11:09.664Z,97.85
2023-04-08T00:13:36.373Z,103.53
2023-04-08T00:16:03.273Z,87.13
2023-04-08T00:18:29.866Z,98.90
2023-04-08T00:20:57.328Z,95.03
2023-04-08T00:23:23.942Z,98.57
2023-04-08T00:25:51.157Z,90.65
2023-04-08T00:28:17.680Z,97.47
2023-04-08T00:30:44.335Z,90.40
2023-04-08T00:33:11.042Z,94.25
2023-04-08T00:35:38.759Z,100.13
2023-04-08T00:38:08.015Z,92.43
2023-04-08T00:40:35.241Z,92.90
2023-04-08T00:43:01.806Z,97.93
2023-04-08T00:45:28.514Z,98.60
2023-04-08T00:47:55.393Z,89.60
2023-04-08T00:50:22.098Z,87.43
2023-04-08T00:52:48.637Z,84.10
2023-04-08T00:55:15.824Z,80.10
2023-04-08T00:57:42.558Z,77.57
2023-04-08T01:00:10.124Z,78.70
2023-04-08T01:02:47.666Z,82.85
2023-04-08T01:05:42.255Z,81.00
2023-04-08T01:08:11.764Z,82.43
2023-04-08T01:10:42.952Z,78.32
2023-04-08T01:13:12.240Z,78.10
2023-04-08T01:15:41.313Z,81.53
2023-04-08T01:18:12.390Z,79.85
2023-04-08T01:20:42.022Z,77.43
2023-04-08T01:23:25.161Z,85.60
2023-04-08T01:25:55.442Z,81.18
2023-04-08T01:28:24.223Z,88.40
2023-04-08T01:30:53.094Z,88.95
2023-04-08T01:33:21.415Z,94.95
2023-04-08T01:35:48.387Z,97.30
2023-04-08T01:38:18.243Z,105.93
2023-04-08T01:40:47.033Z,102.68
2023-04-08T01:43:16.305Z,92.93
2023-04-08T01:45:45.550Z,107.85
2023-04-08T01:48:14.311Z,104.07
2023-04-08T01:50:43.271Z,88.70
2023-04-08T01:53:13.019Z,97.15
2023-04-08T01:55:41.059Z,97.65
2023-04-08T01:58:11.883Z,92.90
2023-04-08T02:00:41.683Z,103.47
2023-04-08T02:03:12.324Z,101.68
2023-04-08T02:05:40.305Z,89.60
2023-04-08T02:08:06.952Z,97.10
2023-04-08T02:10:33.548Z,93.43
2023-04-08T02:13:01.468Z,95.88
2023-04-08T02:15:35.697Z,94.07
2023-04-08T02:18:11.422Z,98.43
2023-04-08T02:21:12.719Z,99.10
2023-04-08T02:23:41.389Z,85.25
2023-04-08T02:26:14.424Z,96.88
2023-04-08T02:28:42.182Z,111.65
2023-04-08T02:31:14.541Z,100.18
2023-04-08T02:33:46.025Z,99.75
2023-04-08T02:36:13.236Z,95.30
2023-04-08T02:38:40.981Z,82.63
2023-04-08T02:41:08.569Z,91.47
2023-04-08T02:43:35.193Z,82.53
2023-04-08T02:46:05.947Z,93.43
2023-04-08T02:48:32.977Z,96.72
2023-04-08T02:50:59.494Z,96.10
2023-04-08T02:53:26.510Z,93.88
2023-04-08T02:55:53.261Z,96.28
2023-04-08T02:58:19.878Z,107.78
2023-04-08T03:00:46.553Z,109.15
2023-04-08T03:03:13.234Z,99.28
2023-04-08T03:05:39.822Z,98.85
2023-04-08T03:08:06.891Z,104.30
2023-04-08T03:10:33.618Z,99.30
2023-04-08T03:13:00.337Z,92.38
2023-04-08T03:15:27.446Z,110.68
2023-04-08T03:17:54.285Z,92.93
2023-04-08T03:20:20.942Z,100.78
2023-04-08T03:22:47.602Z,103.75
2023-04-08T03:25:14.148Z,104.05
2023-04-08T03:27:40.800Z,107.35
2023-04-08T03:30:08.469Z,104.10
2023-04-08T03:32:35.332Z,105.38
2023-04-08T03:35:01.914Z,100.93
2023-04-08T03:37:28.668Z,92.93
2023-04-08T03:39:55.649Z,90.88
2023-04-08T03:42:22.621Z,118.03
2023-04-08T03:44:49.497Z,112.07
2023-04-08T03:47:16.118Z,110.03
2023-04-08T03:49:42.632Z,113.00
2023-04-08T03:52:09.449Z,114.53
2023-04-08T03:54:35.972Z,109.40
2023-04-08T03:57:02.799Z,102.03
2023-04-08T03:59:29.402Z,139.40
2023-04-08T04:01:56.421Z,124.13
2023-04-08T04:04:24.642Z,128.80
2023-04-08T04:06:51.469Z,115.55
2023-04-08T04:09:18.461Z,123.40
2023-04-08T04:11:45.052Z,117.38
2023-04-08T04:14:11.607Z,118.22
2023-04-08T04:16:38.272Z,107.68
2023-04-08T04:19:04.909Z,93.85
2023-04-08T04:21:31.596Z,95.85
2023-04-08T04:23:58.158Z,96.20
2023-04-08T04:26:24.832Z,95.18
2023-04-08T04:28:51.681Z,95.72
2023-04-08T04:31:22.961Z,92.97
2023-04-08T04:33:49.847Z,90.60
2023-04-08T04:36:16.452Z,96.18
2023-04-08T04:38:43.576Z,110.32
2023-04-08T04:41:10.335Z,108.30
2023-04-08T04:43:37.433Z,100.45
2023-04-08T04:48:21.692Z,88.88
2023-04-08T04:50:58.108Z,86.68
2023-04-08T04:53:25.090Z,92.72
2023-04-08T04:55:52.040Z,76.35
2023-04-08T04:58:19.201Z,77.18
2023-04-08T05:00:46.672Z,67.22
2023-04-08T05:03:13.806Z,71.20
2023-04-08T05:05:40.823Z,68.40
2023-04-08T05:08:08.269Z,96.72
2023-04-08T05:10:34.874Z,74.32
2023-04-08T05:13:01.715Z,73.68
2023-04-08T05:15:28.377Z,75.93
2023-04-08T05:17:55.008Z,74.03
2023-04-08T05:20:21.618Z,68.00
2023-04-08T05:22:49.626Z,65.38
2023-04-08T05:25:16.458Z,64.97
2023-04-08T05:27:43.192Z,73.05
2023-04-08T05:30:10.083Z,83.38
2023-04-08T05:32:36.894Z,77.85
2023-04-08T05:35:04.069Z,67.47
2023-04-08T05:37:30.750Z,64.30
2023-04-08T05:39:57.256Z,65.53
2023-04-08T05:42:24.000Z,70.90
2023-04-08T05:44:50.579Z,65.60
2023-04-08T05:47:17.145Z,67.03
2023-04-08T05:49:43.780Z,66.78
2023-04-08T05:52:10.374Z,60.15
2023-04-08T05:54:37.089Z,65.38
2023-04-08T05:57:03.821Z,74.45
2023-04-08T05:59:30.626Z,59.03
2023-04-08T06:01:57.811Z,57.25
2023-04-08T06:04:24.676Z,45.35
2023-04-08T06:06:51.530Z,54.42
2023-04-08T06:09:18.090Z,51.75
2023-04-08T06:11:49.242Z,53.85
2023-04-08T06:14:16.030Z,48.40
2023-04-08T06:16:42.654Z,169.77
2023-04-08T06:19:09.378Z,63.67
2023-04-08T06:21:35.864Z,55.13
2023-04-08T06:24:02.790Z,53.13
2023-04-08T06:26:29.488Z,50.58
2023-04-08T06:28:56.458Z,47.15
2023-04-08T06:31:23.174Z,45.42
2023-04-08T06:33:49.784Z,58.05
2023-04-08T06:36:16.472Z,44.45
2023-04-08T06:38:43.138Z,36.95
2023-04-08T06:41:09.802Z,46.00
2023-04-08T06:43:37.992Z,38.13
2023-04-08T06:46:07.756Z,44.25
2023-04-08T06:48:34.470Z,41.58
2023-04-08T06:51:01.467Z,45.83
2023-04-08T06:53:32.780Z,47.97
2023-04-08T06:56:00.097Z,45.50
2023-04-08T06:58:27.210Z,50.08
2023-04-08T07:00:55.651Z,48.72
2023-04-08T07:03:22.781Z,43.78
2023-04-08T07:05:49.522Z,50.95
2023-04-08T07:08:16.326Z,49.00
2023-04-08T07:10:43.351Z,55.20
2023-04-08T07:13:13.155Z,42.35
2023-04-08T07:15:41.150Z,51.53
2023-04-08T07:18:07.753Z,38.42
2023-04-08T07:20:38.197Z,40.90
2023-04-08T07:23:05.114Z,42.05
2023-04-08T07:25:33.635Z,40.03
2023-04-08T07:28:00.366Z,38.17
2023-04-08T07:30:27.290Z,43.05
2023-04-08T07:32:56.588Z,50.40
2023-04-08T07:35:24.625Z,40.90
2023-04-08T07:37:51.512Z,44.58
2023-04-08T07:40:18.474Z,42.35
2023-04-08T07:42:45.008Z,40.38
2023-04-08T07:45:11.864Z,40.05
2023-04-08T07:47:38.601Z,41.78
2023-04-08T07:50:06.023Z,43.38
2023-04-08T07:52:32.662Z,37.17
2023-04-08T07:54:59.399Z,39.17
2023-04-08T07:57:26.536Z,41.40
2023-04-08T07:59:53.383Z,47.72
2023-04-08T08:02:20.070Z,44.50
2023-04-08T08:04:47.942Z,43.15
2023-04-08T08:07:14.547Z,31.75
2023-04-08T08:09:41.497Z,32.50
2023-04-08T08:12:08.062Z,38.47
2023-04-08T08:14:34.703Z,38.00
2023-04-08T08:17:01.603Z,36.42
2023-04-08T08:19:28.191Z,38.15
2023-04-08T08:21:54.732Z,43.10
2023-04-08T08:24:21.842Z,45.40
2023-04-08T08:26:49.241Z,39.00
2023-04-08T08:29:16.008Z,39.47
2023-04-08T08:31:42.734Z,38.33
2023-04-08T08:34:09.461Z,38.85
2023-04-08T08:36:36.353Z,40.08
2023-04-08T08:39:03.149Z,39.38
2023-04-08T08:41:35.259Z,38.97
2023-04-08T08:44:02.900Z,34.60
2023-04-08T08:46:29.865Z,41.88
2023-04-08T08:48:57.046Z,36.45
2023-04-08T08:51:24.409Z,42.08
2023-04-08T08:53:51.511Z,35.67
2023-04-08T08:56:18.976Z,40.20
2023-04-08T08:58:47.549Z,41.80
2023-04-08T09:01:43.894Z,41.78
2023-04-08T09:04:17.166Z,32.70
2023-04-08T09:06:50.183Z,35.53
2023-04-08T09:09:20.292Z,38.83
2023-04-08T09:11:47.548Z,36.78
2023-04-08T09:14:18.320Z,35.28
2023-04-08T09:16:45.286Z,38.95
2023-04-08T09:19:12.323Z,41.42
2023-04-08T09:21:41.412Z,38.17
2023-04-08T09:24:08.954Z,42.35
2023-04-08T09:26:37.721Z,39.97
2023-04-08T09:29:24.430Z,35.90
2023-04-08T09:32:00.134Z,40.10
2023-04-08T09:34:32.348Z,34.58
2023-04-08T09:36:59.488Z,44.88
2023-04-08T09:39:26.438Z,43.55
2023-04-08T09:41:56.198Z,36.35
2023-04-08T09:44:26.638Z,37.70
2023-04-08T09:47:06.371Z,32.53
2023-04-08T09:49:40.931Z,34.88
2023-04-08T09:52:14.050Z,41.97
2023-04-08T09:54:47.914Z,40.65
2023-04-08T09:57:22.151Z,33.47
2023-04-08T10:00:05.808Z,31.20
2023-04-08T10:03:11.424Z,37.85
2023-04-08T10:05:41.463Z,40.55
2023-04-08T10:08:08.429Z,43.40
2023-04-08T10:10:39.327Z,45.10
2023-04-08T10:13:07.476Z,49.22
2023-04-08T10:15:36.679Z,46.17
2023-04-08T10:18:05.530Z,47.50
2023-04-08T10:20:34.958Z,43.05
2023-04-08T10:23:02.494Z,33.90
2023-04-08T10:25:31.431Z,41.33
2023-04-08T10:27:59.256Z,40.90
2023-04-08T10:30:28.750Z,39.38
2023-04-08T10:32:57.465Z,45.25
2023-04-08T10:35:36.441Z,45.10
2023-04-08T10:38:03.550Z,43.67
2023-04-08T10:40:38.921Z,36.42
2023-04-08T10:43:06.077Z,37.10
2023-04-08T10:45:33.473Z,37.83
2023-04-08T10:48:15.464Z,37.33
2023-04-08T10:50:42.262Z,39.47
2023-04-08T10:53:09.962Z,40.10
2023-04-08T10:55:37.013Z,32.80
2023-04-08T10:58:07.699Z,35.33
2023-04-08T11:00:39.516Z,39.13
2023-04-08T11:03:07.652Z,39.42
2023-04-08T11:05:39.193Z,36.40
2023-04-08T11:08:06.423Z,42.50
2023-04-08T11:10:38.907Z,37.63
2023-04-08T11:13:10.007Z,38.97
2023-04-08T11:15:37.315Z,37.13
2023-04-08T11:18:05.797Z,38.97
2023-04-08T11:20:37.117Z,38.88
2023-04-08T11:23:05.904Z,40.43
2023-04-08T11:25:32.709Z,38.00
2023-04-08T11:28:00.468Z,39.00
2023-04-08T11:30:28.073Z,34.30
2023-04-08T11:32:55.814Z,39.38
2023-04-08T11:35:22.493Z,40.28
2023-04-08T11:37:49.804Z,34.83
2023-04-08T11:40:22.167Z,40.35
2023-04-08T11:42:50.089Z,49.80
2023-04-08T11:45:19.108Z,47.28
2023-04-08T11:47:46.644Z,37.90
2023-04-08T11:50:14.113Z,42.30
2023-04-08T11:52:49.138Z,55.90
2023-04-08T11:55:30.411Z,35.58
2023-04-08T11:58:02.482Z,65.55
2023-04-08T12:00:29.212Z,72.30
2023-04-08T12:02:56.143Z,47.60
2023-04-08T12:05:22.846Z,49.10
2023-04-08T12:07:49.514Z,40.08
2023-04-08T12:10:16.267Z,35.72
2023-04-08T12:12:42.946Z,39.55
2023-04-08T12:15:11.387Z,35.30
2023-04-08T12:17:40.945Z,42.72
2023-04-08T12:20:07.925Z,43.17
2023-04-08T12:22:34.523Z,39.78
2023-04-08T12:25:02.942Z,40.45
2023-04-08T12:27:35.198Z,42.80
2023-04-08T12:30:03.306Z,46.08
2023-04-08T12:32:29.997Z,45.63
2023-04-08T12:34:56.912Z,45.80
2023-04-08T12:37:23.714Z,44.00
2023-04-08T12:39:50.348Z,56.03
2023-04-08T12:42:16.948Z,44.13
2023-04-08T12:44:43.843Z,48.90
2023-04-08T12:47:10.491Z,45.35
2023-04-08T12:49:48.748Z,45.60
2023-04-08T12:52:17.387Z,44.35
2023-04-08T12:54:44.317Z,57.85
2023-04-08T12:57:11.154Z,53.70
2023-04-08T12:59:39.807Z,53.00
2023-04-08T13:02:07.896Z,50.40
2023-04-08T13:04:34.989Z,56.58
2023-04-08T13:07:01.591Z,58.70
2023-04-08T13:09:30.037Z,53.20
2023-04-08T13:11:56.570Z,57.10
2023-04-08T13:14:23.209Z,58.20
2023-04-08T13:16:50.069Z,54.40
2023-04-08T13:19:16.785Z,45.33
2023-04-08T13:21:45.552Z,55.63
2023-04-08T13:24:12.807Z,54.65
2023-04-08T13:26:39.298Z,51.13
2023-04-08T13:29:06.742Z,56.58
2023-04-08T13:31:33.449Z,46.65
2023-04-08T13:34:00.142Z,49.88
2023-04-08T13:36:29.163Z,49.17
2023-04-08T13:38:56.551Z,52.58
2023-04-08T13:41:23.435Z,42.92
2023-04-08T13:43:53.613Z,54.47
2023-04-08T13:46:20.517Z,53.53
2023-04-08T13:48:48.310Z,50.00
2023-04-08T13:51:14.892Z,45.03
2023-04-08T13:53:42.116Z,51.10
2023-04-08T13:56:08.774Z,48.10
2023-04-08T13:58:35.364Z,49.38
2023-04-08T14:01:07.807Z,54.15
2023-04-08T14:03:34.499Z,53.78
2023-04-08T14:06:01.838Z,48.30
2023-04-08T14:08:28.730Z,48.70
2023-04-08T14:10:58.524Z,49.55
2023-04-08T14:13:25.571Z,57.95
2023-04-08T14:15:53.507Z,52.38
2023-04-08T14:18:20.558Z,41.63
2023-04-08T14:20:47.153Z,52.85
2023-04-08T14:23:13.808Z,47.17
2023-04-08T14:25:40.826Z,49.83
2023-04-08T14:28:08.056Z,58.45
2023-04-08T14:30:36.288Z,52.75
2023-04-08T14:33:03.123Z,44.55
2023-04-08T14:35:29.693Z,50.58
2023-04-08T14:37:56.742Z,53.10
2023-04-08T14:40:24.850Z,50.83
2023-04-08T14:42:51.541Z,46.92
2023-04-08T14:45:18.131Z,53.33
2023-04-08T14:47:44.844Z,46.05
2023-04-08T14:50:11.675Z,53.95
2023-04-08T14:52:38.270Z,52.88
2023-04-08T14:55:08.081Z,46.40
2023-04-08T14:57:34.700Z,51.90
2023-04-08T15:00:02.599Z,49.38
2023-04-08T15:02:29.395Z,44.53
2023-04-08T15:04:56.227Z,56.63
2023-04-08T15:07:23.683Z,47.92
2023-04-08T15:09:50.329Z,45.70
2023-04-08T15:12:16.966Z,52.63
2023-04-08T15:14:43.534Z,55.72
2023-04-08T15:17:10.314Z,49.45
2023-04-08T15:19:36.906Z,48.03
2023-04-08T15:22:03.720Z,49.05
2023-04-08T15:24:30.622Z,57.92
2023-04-08T15:26:57.622Z,56.13
2023-04-08T15:29:24.533Z,49.80
2023-04-08T15:31:53.300Z,49.05
2023-04-08T15:34:19.838Z,52.88
2023-04-08T15:36:47.669Z,42.40
2023-04-08T15:39:14.822Z,62.50
2023-04-08T15:41:41.567Z,54.13
2023-04-08T15:44:09.167Z,47.47
2023-04-08T15:46:37.514Z,40.15
2023-04-08T15:49:04.753Z,49.10
2023-04-08T15:51:32.349Z,51.38
2023-04-08T15:53:59.625Z,44.65
2023-04-08T15:56:28.308Z,46.20
2023-04-08T15:58:56.527Z,53.00
2023-04-08T16:01:23.405Z,50.83
2023-04-08T16:03:50.466Z,55.63
2023-04-08T16:06:17.171Z,51.67
2023-04-08T16:08:44.731Z,49.38
2023-04-08T16:11:13.806Z,50.63
2023-04-08T16:13:42.443Z,49.00
2023-04-08T16:16:09.451Z,54.63
2023-04-08T16:18:36.068Z,51.65
2023-04-08T16:21:06.560Z,51.45
2023-04-08T16:23:34.155Z,50.00
2023-04-08T16:26:01.313Z,50.70
2023-04-08T16:28:28.333Z,48.10
2023-04-08T16:30:55.160Z,50.35
2023-04-08T16:33:29.811Z,47.88
2023-04-08T16:35:57.308Z,49.17
2023-04-08T16:40:51.080Z,48.85
2023-04-08T16:43:17.943Z,57.22
2023-04-08T16:45:48.542Z,53.45
2023-04-08T16:48:17.242Z,52.25
2023-04-08T16:50:44.016Z,70.75
2023-04-08T16:53:14.244Z,53.97
2023-04-08T16:55:41.133Z,59.78
2023-04-08T16:58:08.200Z,62.38
2023-04-08T17:00:35.241Z,75.20
2023-04-08T17:03:02.259Z,62.17
2023-04-08T17:05:29.376Z,87.28
2023-04-08T17:08:00.113Z,173.23
2023-04-08T17:10:27.024Z,91.32
2023-04-08T17:12:53.845Z,75.35
2023-04-08T17:15:20.602Z,120.47
2023-04-08T17:17:47.879Z,200.32
2023-04-08T17:20:14.758Z,195.50
2023-04-08T17:22:42.058Z,96.60
2023-04-08T17:25:09.047Z,108.80
2023-04-08T17:27:36.456Z,168.40
2023-04-08T17:30:03.548Z,122.63
2023-04-08T17:32:30.221Z,80.55
2023-04-08T17:34:56.852Z,77.82
2023-04-08T17:37:23.532Z,96.55
2023-04-08T17:39:53.353Z,103.32
2023-04-08T17:42:22.777Z,93.50
2023-04-08T17:44:49.490Z,85.13
2023-04-08T17:47:16.215Z,78.10
2023-04-08T17:49:42.845Z,85.90
2023-04-08T17:52:09.707Z,78.78
2023-04-08T17:54:38.441Z,87.65
2023-04-08T17:57:04.986Z,82.30
2023-04-08T17:59:31.902Z,97.53
2023-04-08T18:01:58.568Z,85.75
2023-04-08T18:04:29.789Z,89.32
2023-04-08T18:06:57.139Z,111.53
2023-04-08T18:09:23.677Z,138.80
2023-04-08T18:11:53.127Z,226.88
2023-04-08T18:14:20.306Z,201.27
2023-04-08T18:16:46.884Z,147.55
2023-04-08T18:19:13.671Z,114.63
2023-04-08T18:21:40.429Z,114.15
2023-04-08T18:24:09.102Z,107.45
2023-04-08T18:26:36.054Z,94.30
2023-04-08T18:29:03.147Z,89.90
2023-04-08T18:31:29.802Z,90.25
2023-04-08T18:33:57.029Z,81.93
2023-04-08T18:36:23.609Z,83.07
2023-04-08T18:38:50.499Z,79.95
2023-04-08T18:41:18.043Z,72.50
2023-04-08T18:43:44.706Z,76.03
2023-04-08T18:46:11.314Z,79.20
2023-04-08T18:48:38.023Z,92.35
2023-04-08T18:51:04.615Z,87.68
2023-04-08T18:53:31.289Z,83.10
2023-04-08T18:55:58.330Z,80.57
2023-04-08T18:58:27.117Z,87.15
2023-04-08T19:00:53.681Z,88.78
2023-04-08T19:03:20.761Z,96.68
2023-04-08T19:05:47.456Z,93.07
2023-04-08T19:08:14.098Z,157.20
2023-04-08T19:10:40.892Z,154.65
2023-04-08T19:13:07.575Z,186.98
2023-04-08T19:15:34.157Z,227.25
2023-04-08T19:18:01.858Z,198.07
2023-04-08T19:20:28.624Z,236.85
2023-04-08T19:22:55.853Z,203.13
2023-04-08T19:25:23.538Z,276.52
2023-04-08T19:27:50.443Z,338.63
2023-04-08T19:30:17.194Z,294.27
2023-04-08T19:32:47.005Z,164.27
2023-04-08T19:35:14.651Z,158.90
2023-04-08T19:37:41.683Z,98.93
2023-04-08T19:40:09.396Z,131.70
2023-04-08T19:42:36.507Z,92.25
2023-04-08T19:45:03.990Z,119.68
2023-04-08T19:47:33.866Z,233.50
2023-04-08T19:50:00.707Z,274.08
2023-04-08T19:52:27.355Z,240.73
2023-04-08T19:54:54.345Z,163.60
2023-04-08T19:57:22.571Z,158.48
2023-04-08T19:59:49.621Z,164.48
2023-04-08T20:02:16.396Z,148.10
2023-04-08T20:04:44.752Z,102.18
2023-04-08T20:07:11.757Z,81.45
2023-04-08T20:09:38.643Z,74.55
2023-04-08T20:12:05.941Z,66.38
2023-04-08T20:14:35.483Z,72.05
2023-04-08T20:17:02.206Z,77.85
2023-04-08T20:19:29.146Z,78.68
2023-04-08T20:21:57.176Z,95.03
2023-04-08T20:24:24.723Z,92.32
2023-04-08T20:26:52.351Z,100.28
2023-04-08T20:29:19.091Z,107.57
2023-04-08T20:31:45.970Z,136.48
2023-04-08T20:34:12.862Z,115.35
2023-04-08T20:36:40.472Z,326.00
2023-04-08T20:39:10.874Z,347.42
2023-04-08T20:41:37.992Z,260.10
2023-04-08T20:44:06.810Z,396.92
2023-04-08T20:46:33.593Z,284.90
2023-04-08T20:49:00.188Z,244.30
2023-04-08T20:51:27.293Z,222.43
2023-04-08T20:53:53.944Z,169.95
2023-04-08T20:56:21.076Z,216.30
2023-04-08T20:58:47.644Z,216.82
2023-04-08T21:01:14.600Z,120.10
2023-04-08T21:03:41.414Z,125.13
2023-04-08T21:06:08.243Z,112.65
2023-04-08T21:08:35.203Z,148.82
2023-04-08T21:11:01.802Z,161.38
2023-04-08T21:13:28.328Z,236.05
2023-04-08T21:15:54.979Z,204.07
2023-04-08T21:18:23.678Z,139.02
2023-04-08T21:20:50.449Z,130.52
2023-04-08T21:23:17.036Z,125.78
2023-04-08T21:25:43.698Z,114.75
2023-04-08T21:28:10.344Z,117.95
2023-04-08T21:30:37.068Z,131.48
2023-04-08T21:33:03.926Z,88.43
2023-04-08T21:35:31.027Z,84.07
2023-04-08T21:37:57.743Z,78.47
2023-04-08T21:40:24.448Z,78.18
2023-04-08T21:42:51.576Z,79.28
2023-04-08T21:45:18.606Z,76.13
2023-04-08T21:47:45.481Z,78.65
2023-04-08T21:50:12.136Z,72.60
2023-04-08T21:52:38.744Z,80.40
2023-04-08T21:55:06.545Z,74.80
2023-04-08T21:57:33.096Z,81.80
2023-04-08T21:59:59.889Z,82.65
2023-04-08T22:02:26.675Z,93.90
2023-04-08T22:04:53.557Z,94.68
2023-04-08T22:07:20.191Z,91.18
2023-04-08T22:09:48.418Z,89.93
2023-04-08T22:12:15.275Z,91.50
2023-04-08T22:14:41.990Z,88.45
2023-04-08T22:17:08.592Z,91.05
2023-04-08T22:19:35.525Z,93.18
2023-04-08T22:22:02.188Z,97.63
2023-04-08T22:24:28.853Z,93.70
2023-04-08T22:26:55.939Z,104.68
2023-04-08T22:29:22.565Z,103.35
2023-04-08T22:31:49.184Z,98.65
2023-04-08T22:34:15.807Z,107.43
2023-04-08T22:36:42.593Z,95.45
2023-04-08T22:39:09.206Z,102.18
2023-04-08T22:41:35.882Z,100.60
2023-04-08T22:44:02.899Z,97.05
2023-04-08T22:46:29.449Z,94.97
2023-04-08T22:48:56.005Z,95.75
2023-04-08T22:51:22.705Z,88.13
2023-04-08T22:53:49.445Z,91.53
2023-04-08T22:56:16.021Z,92.07
2023-04-08T22:58:43.565Z,88.45
2023-04-08T23:01:16.938Z,98.53
2023-04-08T23:03:44.407Z,93.53
2023-04-08T23:06:11.495Z,106.75
2023-04-08T23:08:38.710Z,102.05
2023-04-08T23:11:06.217Z,100.25
2023-04-08T23:13:32.904Z,93.53
2023-04-08T23:15:59.588Z,88.15
2023-04-08T23:18:26.367Z,88.50
2023-04-08T23:20:54.317Z,82.90
2023-04-08T23:23:21.911Z,91.13
2023-04-08T23:25:48.522Z,88.40
2023-04-08T23:28:15.261Z,76.53
2023-04-08T23:30:41.974Z,87.18
2023-04-08T23:33:08.890Z,97.40
2023-04-08T23:35:35.584Z,112.43
2023-04-08T23:38:02.172Z,160.23
2023-04-08T23:40:28.723Z,138.23
2023-04-08T23:42:55.524Z,133.82
2023-04-08T23:45:22.065Z,153.32
2023-04-08T23:47:49.165Z,127.80
2023-04-08T23:50:15.795Z,150.10
2023-04-08T23:52:42.558Z,175.25
2023-04-08T23:55:09.494Z,169.35
2023-04-08T23:57:36.035Z,173.50
